»·PEaware :: N195WB KSBP-KLAS

N195WB :: KSBP-KLAS

FLIGHT INFORMATION

Flight Status: Arrived
Operator: Privately registered:
United States
More flights under this callsign
Pilot: Drew L. (13237)
Aircraft: BOEING 757-200
(B752)
More flights by this aircraft type
Origin: KSBP San Luis Co Regl
United States
Destination: KLAS McCarran Intl
United States
More flights between these airports :: More routes between these airports
Route: +RZS PMD DAG MISEN KEPEC4
File this flight plan on PilotEdge
Remarks:
Altitude:
(Current/Filed)
31,000ft
Speed:
(Current/Filed)
490kts
Departed: 08-May-17 07:59 PM
Arrived: 08-May-17 09:05 PM
Distance/Time
Traveled:
272nm/1:06
Distance/Time
To Go:
Arrived

Flight Plot

Page will automatically refresh every two minutes.

Flight plan parsing failed; only flown route is shown


Map Options




Map Legend


Flown Route
Filed Route
Departure Airport
Arrival Airport
Navaid (VOR, NDB)
Fix

Horizontal Profiles

Position Reports

Time Latitude Longitude Heading Altitude Ground
Speed
08-May-17 19:24 35.239313 -120.641937 121 223ft 0kts
08-May-17 19:25 35.239313 -120.641938 121 222ft 0kts
08-May-17 19:26 35.239313 -120.641938 121 222ft 0kts
08-May-17 19:27 35.239313 -120.641938 121 222ft 0kts
08-May-17 19:28 35.239313 -120.641938 121 222ft 0kts
08-May-17 19:29 35.239313 -120.641938 121 222ft 0kts
08-May-17 19:30 35.239313 -120.641938 121 222ft 0kts
08-May-17 19:31 35.239313 -120.641938 121 222ft 0kts
08-May-17 19:32 35.239313 -120.641938 121 222ft 0kts
08-May-17 19:33 35.239313 -120.641938 121 222ft 0kts
08-May-17 19:34 35.239313 -120.641938 121 222ft 0kts
08-May-17 19:35 35.239313 -120.641938 121 222ft 0kts
08-May-17 19:36 35.239313 -120.641938 121 222ft 0kts
08-May-17 19:37 35.239313 -120.641938 121 222ft 0kts
08-May-17 19:38 35.239313 -120.641938 121 222ft 0kts
08-May-17 19:39 35.239313 -120.641938 121 222ft 0kts
08-May-17 19:40 35.239313 -120.641938 121 222ft 0kts
08-May-17 19:41 35.239313 -120.641938 121 222ft 0kts
08-May-17 19:42 35.239313 -120.641938 121 222ft 0kts
08-May-17 19:43 35.239313 -120.641938 121 222ft 0kts
08-May-17 19:44 35.239313 -120.641938 121 222ft 0kts
08-May-17 19:45 35.239313 -120.641938 121 222ft 0kts
08-May-17 19:46 35.239313 -120.641938 121 222ft 0kts
08-May-17 19:47 35.239313 -120.641938 121 222ft 0kts
08-May-17 19:48 35.239313 -120.641938 121 222ft 0kts
08-May-17 19:49 35.239313 -120.641938 121 222ft 0kts
08-May-17 19:50 35.239313 -120.641938 121 222ft 0kts
08-May-17 19:51 35.239313 -120.641938 121 222ft 0kts
08-May-17 19:52 35.239313 -120.641938 121 222ft 0kts
08-May-17 19:53 35.239313 -120.641938 121 222ft 0kts
08-May-17 19:54 35.239313 -120.641937 121 222ft 0kts
08-May-17 19:55 35.239313 -120.641937 121 222ft 0kts
08-May-17 19:56 35.239313 -120.641936 120 222ft 0kts
08-May-17 19:57 35.237896 -120.639903 118 222ft 15kts
08-May-17 19:58 35.235359 -120.635391 125 222ft 17kts
08-May-17 19:59 35.233490 -120.632229 167 223ft 0kts
08-May-17 20:00 35.233406 -120.632211 172 222ft 7kts
08-May-17 20:01 35.238689 -120.643151 304 223ft 142kts
08-May-17 20:02 35.266895 -120.695907 304 3440ft 218kts
08-May-17 20:03 35.301633 -120.765693 303 4944ft 251kts
08-May-17 20:04 35.337675 -120.838735 303 6899ft 258kts
08-May-17 20:05 35.375221 -120.914984 304 7939ft 263kts
08-May-17 20:06 35.387633 -120.999479 236 9339ft 298kts
08-May-17 20:07 35.308912 -121.035311 192 12708ft 324kts
08-May-17 20:08 35.217983 -121.057746 192 15581ft 345kts
08-May-17 20:09 35.122267 -121.058007 149 18125ft 361kts
08-May-17 20:10 35.066098 -120.963357 107 20542ft 355kts
08-May-17 20:11 35.024930 -120.851303 107 22779ft 369kts
08-May-17 20:12 34.982045 -120.735750 107 24589ft 390kts
08-May-17 20:13 34.934852 -120.604839 107 24776ft 455kts
08-May-17 20:14 34.883644 -120.458553 107 26566ft 474kts
08-May-17 20:15 34.835591 -120.323086 107 28721ft 472kts
08-May-17 20:16 34.783780 -120.178722 107 30754ft 470kts
08-May-17 20:17 34.730411 -120.028907 107 30939ft 492kts
08-May-17 20:18 34.676541 -119.876549 107 30937ft 492kts
08-May-17 20:19 34.625973 -119.723704 99 30888ft 486kts
08-May-17 20:20 34.601665 -119.564979 79 30890ft 468kts
08-May-17 20:21 34.635813 -119.417567 60 30886ft 449kts
08-May-17 20:22 34.681632 -119.287851 60 30989ft 451kts
08-May-17 20:23 34.730932 -119.148288 60 30990ft 451kts
08-May-17 20:24 34.780457 -119.008236 60 30990ft 451kts
08-May-17 20:25 34.830018 -118.868203 60 30989ft 451kts
08-May-17 20:26 34.879421 -118.728635 59 31016ft 451kts
08-May-17 20:27 34.928977 -118.588690 59 31016ft 451kts
08-May-17 20:28 34.978453 -118.449135 59 31015ft 451kts
08-May-17 20:29 35.023363 -118.322485 60 30916ft 452kts
08-May-17 20:30 35.073198 -118.182070 60 30904ft 453kts
08-May-17 20:31 35.115095 -118.064198 60 30920ft 453kts
08-May-17 20:32 35.154319 -117.917810 76 30923ft 470kts
08-May-17 20:33 35.154989 -117.756351 85 30918ft 478kts
08-May-17 20:34 35.147667 -117.594305 86 30919ft 480kts
08-May-17 20:35 35.140977 -117.432506 86 30919ft 479kts
08-May-17 20:36 35.134471 -117.273375 86 30917ft 481kts
08-May-17 20:37 35.127631 -117.110588 86 30918ft 481kts
08-May-17 20:38 35.120595 -116.948023 86 30918ft 481kts
08-May-17 20:39 35.113321 -116.785102 86 30444ft 482kts
08-May-17 20:40 35.105827 -116.622196 86 29551ft 479kts
08-May-17 20:41 35.102440 -116.463969 74 27780ft 452kts
08-May-17 20:42 35.153761 -116.338780 42 25867ft 406kts
08-May-17 20:43 35.228580 -116.240665 40 23888ft 390kts
08-May-17 20:44 35.302538 -116.147097 40 21908ft 378kts
08-May-17 20:45 35.374462 -116.056355 40 19921ft 368kts
08-May-17 20:46 35.444376 -115.967973 41 17936ft 360kts
08-May-17 20:47 35.513325 -115.880590 41 15936ft 354kts
08-May-17 20:48 35.581101 -115.794460 42 13942ft 349kts
08-May-17 20:49 35.646896 -115.710568 42 12873ft 321kts
08-May-17 20:50 35.708206 -115.632313 42 12885ft 318kts
08-May-17 20:51 35.779836 -115.577905 2 12897ft 308kts
08-May-17 20:52 35.861212 -115.570855 1 12308ft 282kts
08-May-17 20:53 35.939111 -115.565502 6 11870ft 280kts
08-May-17 20:54 35.980767 -115.491255 83 11035ft 299kts
08-May-17 20:55 35.988643 -115.389595 81 9670ft 300kts
08-May-17 20:56 35.995780 -115.291369 81 8871ft 280kts
08-May-17 20:57 36.002012 -115.201095 81 8845ft 259kts
08-May-17 20:58 36.008005 -115.113165 81 8865ft 249kts
08-May-17 20:59 36.012995 -115.029600 83 8331ft 243kts
08-May-17 21:00 36.016254 -114.946858 83 7812ft 236kts
08-May-17 21:01 36.046246 -114.896964 344 7276ft 194kts
08-May-17 21:02 36.081176 -114.942303 278 5872ft 193kts
08-May-17 21:03 36.076986 -115.002626 269 4614ft 171kts
08-May-17 21:04 36.076600 -115.056779 270 3399ft 135kts
08-May-17 21:05 36.076361 -115.104381 269 2557ft 139kts
08-May-17 21:06 36.076361 -115.143516 270 2152ft 51kts
08-May-17 21:07 36.078042 -115.152917 329 2152ft 12kts
08-May-17 21:08 36.078011 -115.161346 270 2152ft 30kts
08-May-17 21:09 36.078051 -115.169686 293 2152ft 11kts
08-May-17 21:10 36.085748 -115.165896 25 2153ft 39kts
08-May-17 21:11 36.091085 -115.163790 9 2152ft 12kts
08-May-17 21:12 36.091315 -115.166042 219 2153ft 6kts
08-May-17 21:13 36.091101 -115.165953 90 2152ft 0kts
08-May-17 21:14 36.091101 -115.165953 90 2152ft 0kts
08-May-17 21:15 36.091101 -115.165953 90 2152ft 0kts

Navigation Log

Ident Type
Flight plan parsing failed, navigation log unavailable